createdAt,value
2023-02-03T00:04:52.880Z,4.90
2023-02-03T00:09:56.976Z,4.00
2023-02-03T00:15:05.810Z,6.70
2023-02-03T00:20:08.926Z,6.60
2023-02-03T00:25:12.031Z,7.90
2023-02-03T00:30:34.935Z,7.70
2023-02-03T00:35:40.560Z,10.00
2023-02-03T00:40:42.765Z,9.50
2023-02-03T00:45:45.193Z,6.50
2023-02-03T00:50:50.425Z,7.50
2023-02-03T00:55:52.967Z,6.80
2023-02-03T01:01:00.028Z,6.00
2023-02-03T01:06:14.775Z,8.30
2023-02-03T01:11:25.573Z,7.40
2023-02-03T01:16:31.483Z,7.80
2023-02-03T01:21:36.246Z,8.60
2023-02-03T01:26:41.009Z,10.40
2023-02-03T01:31:43.180Z,9.20
2023-02-03T01:36:47.274Z,8.00
2023-02-03T01:41:49.201Z,9.40
2023-02-03T01:46:51.834Z,8.60
2023-02-03T01:51:56.599Z,8.20
2023-02-03T01:57:04.850Z,8.10
2023-02-03T02:02:08.465Z,7.40
2023-02-03T02:07:12.123Z,8.70
2023-02-03T02:12:16.874Z,9.80
2023-02-03T02:17:55.516Z,7.20
2023-02-03T02:23:19.570Z,9.60
2023-02-03T02:28:52.456Z,7.70
2023-02-03T02:34:23.512Z,7.40
2023-02-03T02:39:50.288Z,7.30
2023-02-03T02:45:05.341Z,12.20
2023-02-03T02:50:16.793Z,7.40
2023-02-03T02:55:24.760Z,7.50
2023-02-03T03:00:31.424Z,8.50
2023-02-03T03:05:34.575Z,6.40
2023-02-03T03:10:41.751Z,7.20
2023-02-03T03:15:45.993Z,5.10
2023-02-03T03:20:51.752Z,7.40
2023-02-03T03:26:02.451Z,7.80
2023-02-03T03:31:05.481Z,7.90
2023-02-03T03:36:26.198Z,6.00
2023-02-03T03:41:55.778Z,8.60
2023-02-03T03:47:29.290Z,8.90
2023-02-03T03:52:36.124Z,7.30
2023-02-03T03:57:56.814Z,7.90
2023-02-03T04:03:05.184Z,7.90
2023-02-03T04:08:07.779Z,6.90
2023-02-03T04:13:11.343Z,7.90
2023-02-03T04:18:15.552Z,8.80
2023-02-03T04:23:18.140Z,9.20
2023-02-03T04:28:20.177Z,8.80
2023-02-03T04:33:22.501Z,8.70
2023-02-03T04:38:26.386Z,12.40
2023-02-03T04:43:29.852Z,14.10
2023-02-03T04:48:33.566Z,16.80
2023-02-03T04:53:36.012Z,19.90
2023-02-03T04:58:39.211Z,17.10
2023-02-03T05:03:41.361Z,20.20
2023-02-03T05:08:43.973Z,19.20
2023-02-03T05:13:46.963Z,21.30
2023-02-03T05:18:49.449Z,19.80
2023-02-03T05:23:54.585Z,20.30
2023-02-03T05:28:57.706Z,17.60
2023-02-03T05:34:00.116Z,25.80
2023-02-03T05:39:02.092Z,21.60
2023-02-03T05:44:06.680Z,20.20
2023-02-03T05:49:09.512Z,21.90
2023-02-03T05:54:11.591Z,27.80
2023-02-03T05:59:13.861Z,23.40
2023-02-03T06:04:16.927Z,21.90
2023-02-03T06:09:18.866Z,21.50
2023-02-03T06:14:21.143Z,19.80
2023-02-03T06:19:24.331Z,25.60
2023-02-03T06:24:27.123Z,21.10
2023-02-03T06:29:29.042Z,17.50
2023-02-03T06:34:32.924Z,12.90
2023-02-03T06:39:35.618Z,14.10
2023-02-03T06:44:38.139Z,14.00
2023-02-03T06:49:43.185Z,13.30
2023-02-03T06:54:45.622Z,14.60
2023-02-03T06:59:47.786Z,12.10
2023-02-03T07:04:52.833Z,12.80
2023-02-03T07:09:57.500Z,13.40
2023-02-03T07:14:59.430Z,11.40
2023-02-03T07:20:02.066Z,10.20
2023-02-03T07:25:07.049Z,11.10
2023-02-03T07:30:13.075Z,9.40
2023-02-03T07:35:16.045Z,11.00
2023-02-03T07:40:19.008Z,10.20
2023-02-03T07:45:22.263Z,11.80
2023-02-03T07:50:24.355Z,12.10
2023-02-03T07:55:26.665Z,11.40
2023-02-03T08:00:29.281Z,9.50
2023-02-03T08:05:31.752Z,9.20
2023-02-03T08:10:33.824Z,9.70
2023-02-03T08:15:36.357Z,12.00
2023-02-03T08:20:40.968Z,10.10
2023-02-03T08:25:43.078Z,9.50
2023-02-03T08:30:44.987Z,11.20
2023-02-03T08:35:51.255Z,13.40
2023-02-03T08:40:53.321Z,11.60
2023-02-03T08:45:55.157Z,13.90
2023-02-03T08:51:01.350Z,12.70
2023-02-03T08:56:08.456Z,14.80
2023-02-03T09:01:13.844Z,15.60
2023-02-03T09:06:17.231Z,16.40
2023-02-03T09:11:31.454Z,19.00
2023-02-03T09:16:35.833Z,18.00
2023-02-03T09:21:40.878Z,17.20
2023-02-03T09:26:56.403Z,17.00
2023-02-03T09:32:07.004Z,18.30
2023-02-03T09:37:12.248Z,12.20
2023-02-03T09:43:10.443Z,12.80
2023-02-03T09:48:25.176Z,14.90
2023-02-03T09:53:48.710Z,18.20
2023-02-03T09:58:51.099Z,18.00
2023-02-03T10:04:23.384Z,15.40
2023-02-03T10:09:44.311Z,19.30
2023-02-03T10:15:32.355Z,18.00
2023-02-03T10:20:58.961Z,16.70
2023-02-03T10:26:27.270Z,12.90
2023-02-03T10:31:36.830Z,12.20
2023-02-03T10:37:23.870Z,10.70
2023-02-03T10:42:46.391Z,11.60
2023-02-03T10:47:53.827Z,11.50
2023-02-03T10:53:40.193Z,11.20
2023-02-03T10:58:54.430Z,17.80
2023-02-03T11:04:03.702Z,10.90
2023-02-03T11:09:29.137Z,9.80
2023-02-03T11:14:39.262Z,9.80
2023-02-03T11:19:46.780Z,9.80
2023-02-03T11:24:48.863Z,11.00
2023-02-03T11:30:15.684Z,8.80
2023-02-03T11:35:27.052Z,9.30
2023-02-03T11:40:34.854Z,9.80
2023-02-03T11:45:54.863Z,8.60
2023-02-03T11:51:14.758Z,8.10
2023-02-03T11:56:36.044Z,8.30
2023-02-03T12:02:07.950Z,8.60
2023-02-03T12:07:37.365Z,7.50
2023-02-03T12:13:20.404Z,7.10
2023-02-03T12:18:46.682Z,9.10
2023-02-03T12:24:08.693Z,8.30
2023-02-03T12:29:32.480Z,8.90
2023-02-03T12:34:41.375Z,7.60
2023-02-03T12:39:53.004Z,9.80
2023-02-03T12:45:02.512Z,8.00
2023-02-03T12:50:21.957Z,7.80
2023-02-03T12:55:46.501Z,8.10
2023-02-03T13:01:01.369Z,9.00
2023-02-03T13:06:15.995Z,7.90
2023-02-03T13:11:39.023Z,9.50
2023-02-03T13:16:46.089Z,6.20
2023-02-03T13:21:49.982Z,9.50
2023-02-03T13:27:00.762Z,7.00
2023-02-03T13:32:27.218Z,7.00
2023-02-03T13:37:48.080Z,6.30
2023-02-03T13:43:36.884Z,10.00
2023-02-03T13:48:46.077Z,8.90
2023-02-03T13:53:50.894Z,7.10
2023-02-03T13:59:04.024Z,9.80
2023-02-03T14:04:26.714Z,8.60
2023-02-03T14:09:46.274Z,9.30
2023-02-03T14:15:19.404Z,10.00
2023-02-03T14:20:51.261Z,10.00
2023-02-03T14:26:09.197Z,10.50
2023-02-03T14:31:19.563Z,13.40
2023-02-03T14:36:44.360Z,11.90
2023-02-03T14:42:19.627Z,10.70
2023-02-03T14:48:21.203Z,11.70
2023-02-03T14:53:42.016Z,13.20
2023-02-03T14:59:04.413Z,12.00
2023-02-03T15:04:25.327Z,12.30
2023-02-03T15:09:47.469Z,13.10
2023-02-03T15:14:50.308Z,13.00
2023-02-03T15:19:56.185Z,10.00
2023-02-03T15:25:04.989Z,9.00
2023-02-03T15:30:28.262Z,9.80
2023-02-03T15:35:34.132Z,9.20
2023-02-03T15:40:42.029Z,12.10
2023-02-03T15:45:52.418Z,10.80
2023-02-03T15:51:03.017Z,5.40
2023-02-03T15:56:21.810Z,5.00
2023-02-03T16:06:44.090Z,7.20
2023-02-03T16:12:25.608Z,6.80
2023-02-03T16:17:37.006Z,9.20
2023-02-03T16:22:55.248Z,9.70
2023-02-03T16:28:37.687Z,7.90
2023-02-03T16:34:08.526Z,8.20
2023-02-03T16:39:32.255Z,6.90
2023-02-03T16:44:53.709Z,9.40
2023-02-03T16:50:39.292Z,9.40
2023-02-03T16:55:47.119Z,14.10
2023-02-03T17:00:53.617Z,8.50
2023-02-03T17:06:04.155Z,9.80
2023-02-03T17:11:15.999Z,9.10
2023-02-03T17:16:25.529Z,8.80
2023-02-03T17:21:47.830Z,16.40
2023-02-03T17:27:02.504Z,11.70
2023-02-03T17:32:21.802Z,13.60
2023-02-03T17:37:27.881Z,12.80
2023-02-03T17:53:37.259Z,16.80
2023-02-03T17:58:46.699Z,15.80
2023-02-03T18:04:10.046Z,15.10
2023-02-03T18:09:26.048Z,12.70
2023-02-03T18:14:50.711Z,11.30
2023-02-03T18:20:00.888Z,13.40
2023-02-03T18:25:24.726Z,12.80
2023-02-03T18:30:50.143Z,17.30
2023-02-03T18:36:23.701Z,15.80
2023-02-03T18:41:37.007Z,10.70
2023-02-03T18:47:11.505Z,12.60
2023-02-03T18:52:19.962Z,8.50
2023-02-03T18:57:26.523Z,9.60
2023-02-03T19:02:43.246Z,9.50
2023-02-03T19:07:49.293Z,10.50
2023-02-03T19:12:52.420Z,17.50
2023-02-03T19:17:56.462Z,13.90
2023-02-03T19:23:09.197Z,13.60
2023-02-03T19:28:20.136Z,13.90
2023-02-03T19:33:30.974Z,13.00
2023-02-03T19:38:33.638Z,19.40
2023-02-03T19:43:37.545Z,16.80
2023-02-03T19:48:46.109Z,17.10
2023-02-03T19:53:59.001Z,18.30
2023-02-03T19:59:03.457Z,20.10
2023-02-03T20:04:07.741Z,19.10
2023-02-03T20:09:12.446Z,16.50
2023-02-03T20:14:19.673Z,22.70
2023-02-03T20:19:22.124Z,20.00
2023-02-03T20:24:37.482Z,18.40
2023-02-03T20:29:42.054Z,15.00
2023-02-03T20:34:46.871Z,21.90
2023-02-03T20:39:51.324Z,20.10
2023-02-03T20:44:56.258Z,20.20
2023-02-03T20:49:59.812Z,17.50
2023-02-03T20:55:16.980Z,21.10
2023-02-03T21:00:25.488Z,26.80
2023-02-03T21:05:37.947Z,14.60
2023-02-03T21:10:48.125Z,21.60
2023-02-03T21:15:55.008Z,21.20
2023-02-03T21:20:59.019Z,18.80
2023-02-03T21:26:01.835Z,18.30
2023-02-03T21:31:05.668Z,17.60
2023-02-03T21:36:24.449Z,17.00
2023-02-03T21:41:32.609Z,24.20
2023-02-03T21:46:37.391Z,16.10
2023-02-03T21:51:39.786Z,21.10
2023-02-03T21:56:43.042Z,16.10
2023-02-03T22:01:45.686Z,14.00
2023-02-03T22:06:53.974Z,16.50
2023-02-03T22:12:03.609Z,12.90
2023-02-03T22:17:14.279Z,13.10
2023-02-03T22:22:17.888Z,9.20
2023-02-03T22:27:25.216Z,13.80
2023-02-03T22:32:30.499Z,14.60
2023-02-03T22:37:36.105Z,12.50
2023-02-03T22:42:39.047Z,9.60
2023-02-03T22:47:42.789Z,13.90
2023-02-03T22:52:51.326Z,9.20
2023-02-03T22:58:02.357Z,10.70
2023-02-03T23:03:16.776Z,7.00
2023-02-03T23:08:21.643Z,6.30
2023-02-03T23:13:49.724Z,6.90
2023-02-03T23:19:03.635Z,8.50
2023-02-03T23:24:22.096Z,6.80
2023-02-03T23:29:33.007Z,7.10
2023-02-03T23:35:08.509Z,7.20
2023-02-03T23:40:15.870Z,6.60
2023-02-03T23:45:37.962Z,8.10
2023-02-03T23:50:50.069Z,6.70
2023-02-03T23:55:57.070Z,6.10
